sensor_id;sensor_type;location;lat;lon;timestamp;pressure;altitude;pressure_sealevel;temperature;humidity
60337;BME280;46978;50.288;28.624;2023-02-22T00:00:11;98240.38;;;-1.34;91.57
60337;BME280;46978;50.288;28.624;2023-02-22T00:01:13;98243.75;;;-1.35;91.46
60337;BME280;46978;50.288;28.624;2023-02-22T00:02:15;98239.53;;;-1.35;91.57
60337;BME280;46978;50.288;28.624;2023-02-22T00:03:20;98247.17;;;-1.35;91.69
60337;BME280;46978;50.288;28.624;2023-02-22T00:04:22;98245.44;;;-1.37;91.81
60337;BME280;46978;50.288;28.624;2023-02-22T00:05:23;98247.10;;;-1.41;91.88
60337;BME280;46978;50.288;28.624;2023-02-22T00:06:25;98247.10;;;-1.41;91.88
60337;BME280;46978;50.288;28.624;2023-02-22T00:07:27;98254.73;;;-1.41;91.92
60337;BME280;46978;50.288;28.624;2023-02-22T00:08:30;98259.79;;;-1.44;92.09
60337;BME280;46978;50.288;28.624;2023-02-22T00:09:32;98258.89;;;-1.46;92.16
60337;BME280;46978;50.288;28.624;2023-02-22T00:10:34;98265.64;;;-1.50;92.25
60337;BME280;46978;50.288;28.624;2023-02-22T00:11:36;98269.85;;;-1.53;92.35
60337;BME280;46978;50.288;28.624;2023-02-22T00:12:41;98267.27;;;-1.56;92.17
60337;BME280;46978;50.288;28.624;2023-02-22T00:13:43;98272.31;;;-1.59;92.77
60337;BME280;46978;50.288;28.624;2023-02-22T00:14:45;98273.95;;;-1.63;93.14
60337;BME280;46978;50.288;28.624;2023-02-22T00:15:47;98274.77;;;-1.67;92.96
60337;BME280;46978;50.288;28.624;2023-02-22T00:16:48;98276.39;;;-1.71;93.29
60337;BME280;46978;50.288;28.624;2023-02-22T00:17:50;98278.06;;;-1.73;93.46
60337;BME280;46978;50.288;28.624;2023-02-22T00:18:52;98278.03;;;-1.76;93.29
60337;BME280;46978;50.288;28.624;2023-02-22T00:19:53;98277.19;;;-1.76;93.82
60337;BME280;46978;50.288;28.624;2023-02-22T00:20:56;98281.39;;;-1.77;93.56
60337;BME280;46978;50.288;28.624;2023-02-22T00:21:58;98280.53;;;-1.79;93.45
60337;BME280;46978;50.288;28.624;2023-02-22T00:22:59;98287.31;;;-1.79;93.69
60337;BME280;46978;50.288;28.624;2023-02-22T00:24:01;98283.89;;;-1.80;93.72
60337;BME280;46978;50.288;28.624;2023-02-22T00:25:03;98283.88;;;-1.82;94.05
60337;BME280;46978;50.288;28.624;2023-02-22T00:26:05;98294.05;;;-1.82;94.17
60337;BME280;46978;50.288;28.624;2023-02-22T00:27:07;98286.39;;;-1.83;94.06
60337;BME280;46978;50.288;28.624;2023-02-22T00:28:09;98294.88;;;-1.84;94.29
60337;BME280;46978;50.288;28.624;2023-02-22T00:29:10;98289.73;;;-1.89;94.16
60337;BME280;46978;50.288;28.624;2023-02-22T00:30:14;98296.45;;;-1.91;94.42
60337;BME280;46978;50.288;28.624;2023-02-22T00:31:17;98296.44;;;-1.92;94.49
60337;BME280;46978;50.288;28.624;2023-02-22T00:32:18;98301.50;;;-1.94;94.31
60337;BME280;46978;50.288;28.624;2023-02-22T00:33:20;98310.80;;;-1.96;94.55
60337;BME280;46978;50.288;28.624;2023-02-22T00:34:22;98300.58;;;-1.99;94.63
60337;BME280;46978;50.288;28.624;2023-02-22T00:35:25;98306.48;;;-2.00;94.91
60337;BME280;46978;50.288;28.624;2023-02-22T00:36:27;98309.03;;;-2.00;94.86
60337;BME280;46978;50.288;28.624;2023-02-22T00:37:29;98307.30;;;-2.04;94.94
60337;BME280;46978;50.288;28.624;2023-02-22T00:38:31;98308.14;;;-2.04;95.30
60337;BME280;46978;50.288;28.624;2023-02-22T00:39:32;98310.70;;;-2.02;95.38
60337;BME280;46978;50.288;28.624;2023-02-22T00:40:34;98315.79;;;-2.02;95.12
60337;BME280;46978;50.288;28.624;2023-02-22T00:41:36;98313.20;;;-2.05;95.08
60337;BME280;46978;50.288;28.624;2023-02-22T00:42:38;98309.81;;;-2.06;95.13
60337;BME280;46978;50.288;28.624;2023-02-22T00:43:39;98323.32;;;-2.08;94.86
60337;BME280;46978;50.288;28.624;2023-02-22T00:44:41;98315.67;;;-2.10;95.57
60337;BME280;46978;50.288;28.624;2023-02-22T00:45:43;98319.06;;;-2.09;95.60
60337;BME280;46978;50.288;28.624;2023-02-22T00:46:45;98323.30;;;-2.10;95.41
60337;BME280;46978;50.288;28.624;2023-02-22T00:47:48;98324.97;;;-2.12;95.27
60337;BME280;46978;50.288;28.624;2023-02-22T00:48:49;98330.90;;;-2.11;95.56
60337;BME280;46978;50.288;28.624;2023-02-22T00:49:51;98333.42;;;-2.13;95.51
60337;BME280;46978;50.288;28.624;2023-02-22T00:50:53;98331.70;;;-2.14;95.56
60337;BME280;46978;50.288;28.624;2023-02-22T00:51:54;98333.37;;;-2.16;95.68
60337;BME280;46978;50.288;28.624;2023-02-22T00:52:59;98335.91;;;-2.16;95.58
60337;BME280;46978;50.288;28.624;2023-02-22T00:54:01;98331.67;;;-2.16;95.75
60337;BME280;46978;50.288;28.624;2023-02-22T00:55:05;98340.17;;;-2.15;95.73
60337;BME280;46978;50.288;28.624;2023-02-22T00:56:08;98340.14;;;-2.17;95.83
60337;BME280;46978;50.288;28.624;2023-02-22T00:57:11;98343.51;;;-2.18;95.79
60337;BME280;46978;50.288;28.624;2023-02-22T00:58:12;98342.72;;;-2.15;95.89
60337;BME280;46978;50.288;28.624;2023-02-22T00:59:14;98346.94;;;-2.14;95.79
60337;BME280;46978;50.288;28.624;2023-02-22T01:00:20;98352.03;;;-2.14;95.75
60337;BME280;46978;50.288;28.624;2023-02-22T01:01:22;98347.84;;;-2.12;95.63
60337;BME280;46978;50.288;28.624;2023-02-22T01:02:24;98348.72;;;-2.10;95.65
60337;BME280;46978;50.288;28.624;2023-02-22T01:03:25;98353.00;;;-2.07;95.51
60337;BME280;46978;50.288;28.624;2023-02-22T01:04:27;98354.72;;;-2.05;95.35
60337;BME280;46978;50.288;28.624;2023-02-22T01:05:30;98352.22;;;-2.02;95.15
60337;BME280;46978;50.288;28.624;2023-02-22T01:06:32;98353.13;;;-2.00;94.88
60337;BME280;46978;50.288;28.624;2023-02-22T01:07:34;98354.02;;;-1.96;94.81
60337;BME280;46978;50.288;28.624;2023-02-22T01:08:36;98358.30;;;-1.93;94.67
60337;BME280;46978;50.288;28.624;2023-02-22T01:09:37;98357.47;;;-1.91;94.28
60337;BME280;46978;50.288;28.624;2023-02-22T01:10:40;98362.58;;;-1.89;94.10
60337;BME280;46978;50.288;28.624;2023-02-22T01:11:41;98356.66;;;-1.90;94.15
60337;BME280;46978;50.288;28.624;2023-02-22T01:12:43;98360.92;;;-1.89;94.12
60337;BME280;46978;50.288;28.624;2023-02-22T01:13:45;98360.05;;;-1.89;94.08
60337;BME280;46978;50.288;28.624;2023-02-22T01:14:46;98356.66;;;-1.90;94.16
60337;BME280;46978;50.288;28.624;2023-02-22T01:15:48;98364.28;;;-1.90;94.18
60337;BME280;46978;50.288;28.624;2023-02-22T01:16:50;98367.64;;;-1.91;94.22
60337;BME280;46978;50.288;28.624;2023-02-22T01:17:52;98361.72;;;-1.91;94.22
60337;BME280;46978;50.288;28.624;2023-02-22T01:18:54;98367.64;;;-1.91;94.20
60337;BME280;46978;50.288;28.624;2023-02-22T01:19:55;98375.30;;;-1.89;94.21
60337;BME280;46978;50.288;28.624;2023-02-22T01:20:57;98366.84;;;-1.88;94.18
60337;BME280;46978;50.288;28.624;2023-02-22T01:21:58;98368.56;;;-1.87;94.09
60337;BME280;46978;50.288;28.624;2023-02-22T01:23:01;98373.67;;;-1.86;94.08
60337;BME280;46978;50.288;28.624;2023-02-22T01:24:03;98372.00;;;-1.84;94.08
60337;BME280;46978;50.288;28.624;2023-02-22T01:25:05;98382.20;;;-1.82;94.09
60337;BME280;46978;50.288;28.624;2023-02-22T01:26:06;98372.05;;;-1.81;94.13
60337;BME280;46978;50.288;28.624;2023-02-22T01:27:08;98376.34;;;-1.78;94.15
60337;BME280;46978;50.288;28.624;2023-02-22T01:28:09;98374.66;;;-1.76;94.04
60337;BME280;46978;50.288;28.624;2023-02-22T01:29:15;98381.47;;;-1.75;94.00
60337;BME280;46978;50.288;28.624;2023-02-22T01:30:20;98378.95;;;-1.73;93.97
60337;BME280;46978;50.288;28.624;2023-02-22T01:31:22;98384.08;;;-1.70;94.03
60337;BME280;46978;50.288;28.624;2023-02-22T01:32:23;98376.48;;;-1.69;94.00
60337;BME280;46978;50.288;28.624;2023-02-22T01:33:25;98378.19;;;-1.66;93.89
60337;BME280;46978;50.288;28.624;2023-02-22T01:34:26;98380.75;;;-1.65;93.80
60337;BME280;46978;50.288;28.624;2023-02-22T01:35:30;98383.32;;;-1.63;93.75
60337;BME280;46978;50.288;28.624;2023-02-22T01:36:32;98383.34;;;-1.62;93.75
60337;BME280;46978;50.288;28.624;2023-02-22T01:37:34;98391.00;;;-1.60;93.77
60337;BME280;46978;50.288;28.624;2023-02-22T01:38:37;98389.35;;;-1.58;93.68
60337;BME280;46978;50.288;28.624;2023-02-22T01:39:38;98385.13;;;-1.56;93.71
60337;BME280;46978;50.288;28.624;2023-02-22T01:40:41;98391.94;;;-1.55;93.63
60337;BME280;46978;50.288;28.624;2023-02-22T01:41:44;98393.66;;;-1.52;93.45
60337;BME280;46978;50.288;28.624;2023-02-22T01:42:54;98390.28;;;-1.51;93.72
60337;BME280;46978;50.288;28.624;2023-02-22T01:43:55;98397.94;;;-1.50;93.58
60337;BME280;46978;50.288;28.624;2023-02-22T01:46:34;98392.89;;;-1.47;93.38
60337;BME280;46978;50.288;28.624;2023-02-22T01:47:35;98392.12;;;-1.42;93.23
60337;BME280;46978;50.288;28.624;2023-02-22T01:48:52;98399.75;;;-1.42;92.63
60337;BME280;46978;50.288;28.624;2023-02-22T01:49:53;98392.98;;;-1.40;92.82
60337;BME280;46978;50.288;28.624;2023-02-22T01:51:01;98398.94;;;-1.38;92.74
60337;BME280;46978;50.288;28.624;2023-02-22T01:52:06;98396.39;;;-1.38;92.73
60337;BME280;46978;50.288;28.624;2023-02-22T01:53:09;98402.36;;;-1.38;92.79
60337;BME280;46978;50.288;28.624;2023-02-22T01:54:24;98404.03;;;-1.38;92.64
60337;BME280;46978;50.288;28.624;2023-02-22T01:55:26;98409.14;;;-1.37;92.58
60337;BME280;46978;50.288;28.624;2023-02-22T01:56:30;98402.38;;;-1.36;92.69
60337;BME280;46978;50.288;28.624;2023-02-22T01:57:34;98398.95;;;-1.37;92.50
60337;BME280;46978;50.288;28.624;2023-02-22T01:58:40;98408.34;;;-1.34;92.71
60337;BME280;46978;50.288;28.624;2023-02-22T01:59:45;98407.52;;;-1.33;92.79
60337;BME280;46978;50.288;28.624;2023-02-22T02:00:47;98402.42;;;-1.33;92.82
60337;BME280;46978;50.288;28.624;2023-02-22T02:01:48;98408.37;;;-1.31;92.92
60337;BME280;46978;50.288;28.624;2023-02-22T02:02:58;98415.18;;;-1.29;92.86
60337;BME280;46978;50.288;28.624;2023-02-22T02:03:57;98410.98;;;-1.27;92.88
60337;BME280;46978;50.288;28.624;2023-02-22T02:05:00;98411.81;;;-1.28;92.74
60337;BME280;46978;50.288;28.624;2023-02-22T02:06:06;98414.38;;;-1.26;92.64
60337;BME280;46978;50.288;28.624;2023-02-22T02:07:11;98410.13;;;-1.26;92.38
60337;BME280;46978;50.288;28.624;2023-02-22T02:08:32;98411.86;;;-1.24;92.48
60337;BME280;46978;50.288;28.624;2023-02-22T02:10:43;98415.27;;;-1.22;92.65
60337;BME280;46978;50.288;28.624;2023-02-22T02:11:45;98416.98;;;-1.21;92.53
60337;BME280;46978;50.288;28.624;2023-02-22T02:12:49;98416.97;;;-1.23;92.33
60337;BME280;46978;50.288;28.624;2023-02-22T02:13:53;98424.60;;;-1.23;92.19
60337;BME280;46978;50.288;28.624;2023-02-22T02:16:24;98426.30;;;-1.23;92.38
60337;BME280;46978;50.288;28.624;2023-02-22T02:17:26;98427.17;;;-1.21;92.67
60337;BME280;46978;50.288;28.624;2023-02-22T02:18:28;98427.15;;;-1.23;92.09
60337;BME280;46978;50.288;28.624;2023-02-22T02:21:06;98433.08;;;-1.22;92.26
60337;BME280;46978;50.288;28.624;2023-02-22T02:27:58;98437.38;;;-1.20;92.24
60337;BME280;46978;50.288;28.624;2023-02-22T02:32:41;98441.66;;;-1.17;92.26
60337;BME280;46978;50.288;28.624;2023-02-22T02:33:21;98442.50;;;-1.17;92.32
60337;BME280;46978;50.288;28.624;2023-02-22T02:36:53;98445.91;;;-1.15;92.20
60337;BME280;46978;50.288;28.624;2023-02-22T02:38:14;98445.89;;;-1.16;92.00
60337;BME280;46978;50.288;28.624;2023-02-22T02:39:21;98446.80;;;-1.14;92.19
60337;BME280;46978;50.288;28.624;2023-02-22T02:41:34;98449.36;;;-1.13;92.09
60337;BME280;46978;50.288;28.624;2023-02-22T02:42:42;98455.31;;;-1.11;91.97
60337;BME280;46978;50.288;28.624;2023-02-22T02:43:54;98451.05;;;-1.12;92.07
60337;BME280;46978;50.288;28.624;2023-02-22T02:45:03;98440.78;;;-1.18;91.96
60337;BME280;46978;50.288;28.624;2023-02-22T02:47:20;98456.13;;;-1.13;91.79
60337;BME280;46978;50.288;28.624;2023-02-22T02:48:20;98455.28;;;-1.14;91.74
60337;BME280;46978;50.288;28.624;2023-02-22T02:49:30;98462.94;;;-1.12;91.78
60337;BME280;46978;50.288;28.624;2023-02-22T02:50:47;98462.07;;;-1.14;91.52
60337;BME280;46978;50.288;28.624;2023-02-22T02:51:53;98469.73;;;-1.13;91.75
60337;BME280;46978;50.288;28.624;2023-02-22T02:52:57;98465.48;;;-1.12;91.80
60337;BME280;46978;50.288;28.624;2023-02-22T02:54:01;98470.57;;;-1.12;91.84
60337;BME280;46978;50.288;28.624;2023-02-22T02:55:04;98471.42;;;-1.12;91.74
60337;BME280;46978;50.288;28.624;2023-02-22T02:56:07;98483.30;;;-1.12;91.89
60337;BME280;46978;50.288;28.624;2023-02-22T02:57:09;98479.95;;;-1.10;91.79
60337;BME280;46978;50.288;28.624;2023-02-22T02:58:21;98470.59;;;-1.11;91.25
60337;BME280;46978;50.288;28.624;2023-02-22T02:59:36;98481.59;;;-1.12;91.48
60337;BME280;46978;50.288;28.624;2023-02-22T03:00:39;98485.87;;;-1.11;91.57
60337;BME280;46978;50.288;28.624;2023-02-22T03:04:40;98494.39;;;-1.07;91.44
60337;BME280;46978;50.288;28.624;2023-02-22T03:06:18;98491.85;;;-1.07;91.43
60337;BME280;46978;50.288;28.624;2023-02-22T03:08:40;98501.23;;;-1.04;91.82
60337;BME280;46978;50.288;28.624;2023-02-22T03:15:04;98507.15;;;-1.05;92.60
60337;BME280;46978;50.288;28.624;2023-02-22T03:17:37;98516.51;;;-1.04;92.49
60337;BME280;46978;50.288;28.624;2023-02-22T03:19:55;98514.78;;;-1.05;92.65
60337;BME280;46978;50.288;28.624;2023-02-22T03:21:30;98521.58;;;-1.06;92.72
60337;BME280;46978;50.288;28.624;2023-02-22T03:22:35;98517.33;;;-1.05;92.72
60337;BME280;46978;50.288;28.624;2023-02-22T03:24:50;98530.09;;;-1.04;92.35
60337;BME280;46978;50.288;28.624;2023-02-22T03:25:58;98529.22;;;-1.06;92.28
60337;BME280;46978;50.288;28.624;2023-02-22T03:27:05;98530.92;;;-1.06;92.41
60337;BME280;46978;50.288;28.624;2023-02-22T03:28:09;98529.22;;;-1.06;92.60
60337;BME280;46978;50.288;28.624;2023-02-22T03:29:13;98533.48;;;-1.05;92.57
60337;BME280;46978;50.288;28.624;2023-02-22T03:31:27;98537.70;;;-1.05;92.57
60337;BME280;46978;50.288;28.624;2023-02-22T03:32:32;98535.13;;;-1.07;92.64
60337;BME280;46978;50.288;28.624;2023-02-22T03:33:44;98534.23;;;-1.11;92.61
60337;BME280;46978;50.288;28.624;2023-02-22T03:34:48;98541.03;;;-1.11;92.83
60337;BME280;46978;50.288;28.624;2023-02-22T03:35:55;98541.83;;;-1.14;92.90
60337;BME280;46978;50.288;28.624;2023-02-22T03:37:13;98540.98;;;-1.14;93.10
60337;BME280;46978;50.288;28.624;2023-02-22T03:38:15;98541.83;;;-1.14;93.29
60337;BME280;46978;50.288;28.624;2023-02-22T03:39:18;98544.38;;;-1.14;93.51
60337;BME280;46978;50.288;28.624;2023-02-22T03:40:32;98552.81;;;-1.16;93.61
60337;BME280;46978;50.288;28.624;2023-02-22T03:41:30;98547.65;;;-1.21;94.14
60337;BME280;46978;50.288;28.624;2023-02-22T03:42:35;98546.00;;;-1.19;94.21
60337;BME280;46978;50.288;28.624;2023-02-22T03:43:47;98551.13;;;-1.17;94.24
60337;BME280;46978;50.288;28.624;2023-02-22T03:44:52;98546.03;;;-1.17;94.32
60337;BME280;46978;50.288;28.624;2023-02-22T03:45:55;98553.67;;;-1.17;94.60
60337;BME280;46978;50.288;28.624;2023-02-22T03:47:01;98554.52;;;-1.17;94.62
60337;BME280;46978;50.288;28.624;2023-02-22T03:48:07;98546.85;;;-1.18;94.57
60337;BME280;46978;50.288;28.624;2023-02-22T03:50:35;98545.17;;;-1.16;94.71
60337;BME280;46978;50.288;28.624;2023-02-22T03:51:38;98541.78;;;-1.17;94.43
60337;BME280;46978;50.288;28.624;2023-02-22T03:52:41;98544.33;;;-1.17;94.51
60337;BME280;46978;50.288;28.624;2023-02-22T03:53:44;98545.16;;;-1.18;94.55
60337;BME280;46978;50.288;28.624;2023-02-22T03:54:46;98551.09;;;-1.19;94.05
60337;BME280;46978;50.288;28.624;2023-02-22T03:55:48;98565.49;;;-1.19;93.97
60337;BME280;46978;50.288;28.624;2023-02-22T03:56:59;98563.83;;;-1.19;94.08
60337;BME280;46978;50.288;28.624;2023-02-22T03:58:08;98565.49;;;-1.19;93.84
60337;BME280;46978;50.288;28.624;2023-02-22T03:59:08;98561.25;;;-1.20;93.67
60337;BME280;46978;50.288;28.624;2023-02-22T04:00:14;98565.49;;;-1.19;93.73
60337;BME280;46978;50.288;28.624;2023-02-22T04:01:16;98556.19;;;-1.19;93.75
60337;BME280;46978;50.288;28.624;2023-02-22T04:02:18;98566.39;;;-1.17;93.57
60337;BME280;46978;50.288;28.624;2023-02-22T04:03:21;98565.52;;;-1.18;93.36
60337;BME280;46978;50.288;28.624;2023-02-22T04:04:24;98563.84;;;-1.17;93.32
60337;BME280;46978;50.288;28.624;2023-02-22T04:05:26;98569.78;;;-1.17;92.97
60337;BME280;46978;50.288;28.624;2023-02-22T04:06:28;98566.34;;;-1.20;92.04
60337;BME280;46978;50.288;28.624;2023-02-22T04:07:30;98573.08;;;-1.22;91.34
60337;BME280;46978;50.288;28.624;2023-02-22T04:08:32;98578.22;;;-1.19;91.76
60337;BME280;46978;50.288;28.624;2023-02-22T04:09:33;98579.09;;;-1.19;92.02
60337;BME280;46978;50.288;28.624;2023-02-22T04:10:35;98585.06;;;-1.17;91.95
60337;BME280;46978;50.288;28.624;2023-02-22T04:11:37;98584.22;;;-1.17;91.73
60337;BME280;46978;50.288;28.624;2023-02-22T04:12:39;98585.06;;;-1.17;91.55
60337;BME280;46978;50.288;28.624;2023-02-22T04:13:40;98587.61;;;-1.17;91.52
60337;BME280;46978;50.288;28.624;2023-02-22T04:14:42;98589.33;;;-1.16;91.47
60337;BME280;46978;50.288;28.624;2023-02-22T04:15:44;98587.62;;;-1.15;91.42
60337;BME280;46978;50.288;28.624;2023-02-22T04:16:45;98593.55;;;-1.16;91.29
60337;BME280;46978;50.288;28.624;2023-02-22T04:17:47;98584.22;;;-1.17;90.18
60337;BME280;46978;50.288;28.624;2023-02-22T04:18:49;98591.85;;;-1.17;89.87
60337;BME280;46978;50.288;28.624;2023-02-22T04:19:50;98594.42;;;-1.16;89.81
60337;BME280;46978;50.288;28.624;2023-02-22T04:20:52;98593.55;;;-1.16;89.48
60337;BME280;46978;50.288;28.624;2023-02-22T04:21:54;98592.70;;;-1.17;88.70
60337;BME280;46978;50.288;28.624;2023-02-22T04:22:56;98595.22;;;-1.18;88.25
60337;BME280;46978;50.288;28.624;2023-02-22T04:23:58;98594.34;;;-1.20;87.53
60337;BME280;46978;50.288;28.624;2023-02-22T04:25:00;98595.14;;;-1.23;85.76
60337;BME280;46978;50.288;28.624;2023-02-22T04:26:01;98598.51;;;-1.24;86.34
60337;BME280;46978;50.288;28.624;2023-02-22T04:27:03;98597.66;;;-1.24;86.48
60337;BME280;46978;50.288;28.624;2023-02-22T04:28:05;98598.48;;;-1.26;86.76
60337;BME280;46978;50.288;28.624;2023-02-22T04:29:07;98605.27;;;-1.26;85.94
60337;BME280;46978;50.288;28.624;2023-02-22T04:30:10;98607.77;;;-1.29;84.73
60337;BME280;46978;50.288;28.624;2023-02-22T04:31:12;98612.88;;;-1.28;85.41
60337;BME280;46978;50.288;28.624;2023-02-22T04:32:14;98609.47;;;-1.30;84.42
60337;BME280;46978;50.288;28.624;2023-02-22T04:33:16;98611.13;;;-1.30;84.74
60337;BME280;46978;50.288;28.624;2023-02-22T04:34:17;98612.83;;;-1.31;84.10
60337;BME280;46978;50.288;28.624;2023-02-22T04:35:20;98612.01;;;-1.30;84.72
60337;BME280;46978;50.288;28.624;2023-02-22T04:36:22;98618.79;;;-1.29;84.81
60337;BME280;46978;50.288;28.624;2023-02-22T04:37:23;98624.77;;;-1.28;84.86
60337;BME280;46978;50.288;28.624;2023-02-22T04:38:26;98618.79;;;-1.29;84.58
60337;BME280;46978;50.288;28.624;2023-02-22T04:39:28;98622.22;;;-1.28;84.58
60337;BME280;46978;50.288;28.624;2023-02-22T04:40:30;98627.30;;;-1.28;84.32
60337;BME280;46978;50.288;28.624;2023-02-22T04:41:32;98623.91;;;-1.27;84.73
60337;BME280;46978;50.288;28.624;2023-02-22T04:42:35;98629.00;;;-1.27;84.21
60337;BME280;46978;50.288;28.624;2023-02-22T04:43:37;98628.97;;;-1.29;83.07
60337;BME280;46978;50.288;28.624;2023-02-22T04:44:39;98633.22;;;-1.29;83.33
60337;BME280;46978;50.288;28.624;2023-02-22T04:45:41;98634.06;;;-1.29;83.61
60337;BME280;46978;50.288;28.624;2023-02-22T04:46:43;98636.59;;;-1.32;82.34
60337;BME280;46978;50.288;28.624;2023-02-22T04:47:44;98635.73;;;-1.31;82.71
60337;BME280;46978;50.288;28.624;2023-02-22T04:48:46;98647.61;;;-1.31;82.35
60337;BME280;46978;50.288;28.624;2023-02-22T04:49:48;98642.50;;;-1.33;81.35
60337;BME280;46978;50.288;28.624;2023-02-22T04:50:50;98644.22;;;-1.32;81.90
60337;BME280;46978;50.288;28.624;2023-02-22T04:51:52;98641.63;;;-1.35;81.27
60337;BME280;46978;50.288;28.624;2023-02-22T04:52:53;98640.77;;;-1.34;81.98
60337;BME280;46978;50.288;28.624;2023-02-22T04:53:55;98645.04;;;-1.33;82.27
60337;BME280;46978;50.288;28.624;2023-02-22T04:54:57;98646.73;;;-1.33;81.57
60337;BME280;46978;50.288;28.624;2023-02-22T04:55:58;98647.59;;;-1.33;81.82
60337;BME280;46978;50.288;28.624;2023-02-22T04:57:00;98645.89;;;-1.32;81.68
60337;BME280;46978;50.288;28.624;2023-02-22T04:58:02;98646.73;;;-1.33;81.40
60337;BME280;46978;50.288;28.624;2023-02-22T04:59:04;98651.75;;;-1.38;80.96
60337;BME280;46978;50.288;28.624;2023-02-22T05:00:06;98650.84;;;-1.40;81.70
60337;BME280;46978;50.288;28.624;2023-02-22T05:01:08;98658.47;;;-1.40;81.94
60337;BME280;46978;50.288;28.624;2023-02-22T05:02:10;98654.27;;;-1.39;81.83
60337;BME280;46978;50.288;28.624;2023-02-22T05:03:12;98659.35;;;-1.39;81.82
60337;BME280;46978;50.288;28.624;2023-02-22T05:04:14;98665.29;;;-1.39;81.97
60337;BME280;46978;50.288;28.624;2023-02-22T05:05:20;98663.56;;;-1.40;82.36
60337;BME280;46978;50.288;28.624;2023-02-22T05:06:23;98667.80;;;-1.40;81.69
60337;BME280;46978;50.288;28.624;2023-02-22T05:07:24;98671.22;;;-1.38;82.00
60337;BME280;46978;50.288;28.624;2023-02-22T05:08:26;98676.31;;;-1.38;81.61
60337;BME280;46978;50.288;28.624;2023-02-22T05:09:28;98677.17;;;-1.39;81.91
60337;BME280;46978;50.288;28.624;2023-02-22T05:10:30;98672.10;;;-1.38;82.02
60337;BME280;46978;50.288;28.624;2023-02-22T05:11:31;98678.83;;;-1.40;81.94
60337;BME280;46978;50.288;28.624;2023-02-22T05:12:34;98672.92;;;-1.39;82.12
60337;BME280;46978;50.288;28.624;2023-02-22T05:13:36;98677.20;;;-1.38;81.72
60337;BME280;46978;50.288;28.624;2023-02-22T05:14:38;98677.20;;;-1.38;81.66
60337;BME280;46978;50.288;28.624;2023-02-22T05:15:39;98687.41;;;-1.36;81.48
60337;BME280;46978;50.288;28.624;2023-02-22T05:16:41;98683.16;;;-1.36;81.37
60337;BME280;46978;50.288;28.624;2023-02-22T05:17:43;98683.10;;;-1.39;80.68
60337;BME280;46978;50.288;28.624;2023-02-22T05:18:44;98686.47;;;-1.40;81.00
60337;BME280;46978;50.288;28.624;2023-02-22T05:19:46;98695.80;;;-1.40;80.89
60337;BME280;46978;50.288;28.624;2023-02-22T05:20:48;98689.02;;;-1.40;80.99
60337;BME280;46978;50.288;28.624;2023-02-22T05:21:50;98694.95;;;-1.41;80.50
60337;BME280;46978;50.288;28.624;2023-02-22T05:22:53;98693.20;;;-1.43;80.38
60337;BME280;46978;50.288;28.624;2023-02-22T05:23:55;98702.59;;;-1.41;81.12
60337;BME280;46978;50.288;28.624;2023-02-22T05:24:56;98699.19;;;-1.40;81.40
60337;BME280;46978;50.288;28.624;2023-02-22T05:25:58;98707.70;;;-1.39;81.29
60337;BME280;46978;50.288;28.624;2023-02-22T05:27:00;98709.43;;;-1.37;81.32
60337;BME280;46978;50.288;28.624;2023-02-22T05:28:06;98711.97;;;-1.37;81.24
60337;BME280;46978;50.288;28.624;2023-02-22T05:29:07;98710.31;;;-1.36;81.37
60337;BME280;46978;50.288;28.624;2023-02-22T05:30:10;98712.83;;;-1.38;81.04
60337;BME280;46978;50.288;28.624;2023-02-22T05:31:12;98711.09;;;-1.39;80.39
60337;BME280;46978;50.288;28.624;2023-02-22T05:32:14;98711.95;;;-1.38;80.29
60337;BME280;46978;50.288;28.624;2023-02-22T05:33:16;98713.58;;;-1.42;79.85
60337;BME280;46978;50.288;28.624;2023-02-22T05:34:18;98720.42;;;-1.39;80.54
60337;BME280;46978;50.288;28.624;2023-02-22T05:35:21;98720.42;;;-1.39;80.78
60337;BME280;46978;50.288;28.624;2023-02-22T05:36:23;98722.13;;;-1.38;80.86
60337;BME280;46978;50.288;28.624;2023-02-22T05:37:25;98722.16;;;-1.37;80.94
60337;BME280;46978;50.288;28.624;2023-02-22T05:38:27;98723.88;;;-1.36;81.07
60337;BME280;46978;50.288;28.624;2023-02-22T05:39:29;98718.70;;;-1.40;80.35
60337;BME280;46978;50.288;28.624;2023-02-22T05:40:31;98725.55;;;-1.38;80.77
60337;BME280;46978;50.288;28.624;2023-02-22T05:41:33;98728.09;;;-1.38;80.75
60337;BME280;46978;50.288;28.624;2023-02-22T05:42:35;98720.48;;;-1.36;81.02
60337;BME280;46978;50.288;28.624;2023-02-22T05:43:38;98718.73;;;-1.39;80.51
60337;BME280;46978;50.288;28.624;2023-02-22T05:44:39;98724.67;;;-1.38;80.92
60337;BME280;46978;50.288;28.624;2023-02-22T05:45:41;98728.13;;;-1.36;81.26
60337;BME280;46978;50.288;28.624;2023-02-22T05:46:43;98730.67;;;-1.36;81.45
60337;BME280;46978;50.288;28.624;2023-02-22T05:47:45;98729.79;;;-1.37;80.43
60337;BME280;46978;50.288;28.624;2023-02-22T05:48:47;98732.36;;;-1.35;80.86
60337;BME280;46978;50.288;28.624;2023-02-22T05:49:49;98743.42;;;-1.35;81.08
60337;BME280;46978;50.288;28.624;2023-02-22T05:50:51;98740.91;;;-1.33;81.18
60337;BME280;46978;50.288;28.624;2023-02-22T05:51:53;98743.48;;;-1.32;80.94
60337;BME280;46978;50.288;28.624;2023-02-22T05:52:55;98748.52;;;-1.35;80.75
60337;BME280;46978;50.288;28.624;2023-02-22T05:53:56;98748.52;;;-1.35;80.75
60337;BME280;46978;50.288;28.624;2023-02-22T05:54:58;98741.69;;;-1.36;80.81
60337;BME280;46978;50.288;28.624;2023-02-22T05:56:00;98752.75;;;-1.34;81.13
60337;BME280;46978;50.288;28.624;2023-02-22T05:57:02;98745.94;;;-1.36;80.88
60337;BME280;46978;50.288;28.624;2023-02-22T05:58:03;98742.54;;;-1.35;81.27
60337;BME280;46978;50.288;28.624;2023-02-22T05:59:05;98753.63;;;-1.33;81.50
60337;BME280;46978;50.288;28.624;2023-02-22T06:00:09;98753.66;;;-1.32;81.68
60337;BME280;46978;50.288;28.624;2023-02-22T06:01:11;98751.11;;;-1.30;81.81
60337;BME280;46978;50.288;28.624;2023-02-22T06:02:13;98758.75;;;-1.32;81.12
60337;BME280;46978;50.288;28.624;2023-02-22T06:03:14;98758.75;;;-1.32;81.19
60337;BME280;46978;50.288;28.624;2023-02-22T06:04:16;98758.75;;;-1.32;81.17
60337;BME280;46978;50.288;28.624;2023-02-22T06:05:18;98758.75;;;-1.32;81.44
60337;BME280;46978;50.288;28.624;2023-02-22T06:06:20;98762.99;;;-1.31;81.49